<?xml version="1.0" encoding="UTF-8" standalone="no" ?>
<gpx xmlns="http://www.topografix.com/GPX/1/1" xmlns:xsi="http://www.w3.org/2001/XMLSchema-instance" xsi:schemaLocation="http://www.topografix.com/GPX/1/1 http://www.topografix.com/GPX/1/1/gpx.xsd" version="1.1" creator="VisuGPX - https://www.visugpx.com">
  <metadata>
    <name>Traou du Boli</name>
    <desc><![CDATA[Départ de Venterol]]></desc>
  </metadata>
  <trk>
    <name><![CDATA[(26) Traou du Boli]]></name>
    <cmt><![CDATA[VENTEROLE]]></cmt>
    <trkseg>
      <trkpt lat="44.39108" lon="5.09796">
        <ele>408</ele>
        <time>2009-04-14T12:03:25.000Z</time>
      </trkpt>
      <trkpt lat="44.39103" lon="5.09793">
        <ele>413</ele>
        <time>2009-04-14T12:03:58.000Z</time>
      </trkpt>
      <trkpt lat="44.39102" lon="5.09786">
        <ele>416</ele>
        <time>2009-04-14T12:04:26.000Z</time>
      </trkpt>
      <trkpt lat="44.39107" lon="5.0979">
        <ele>410</ele>
        <time>2009-04-14T12:04:48.000Z</time>
      </trkpt>
      <trkpt lat="44.39101" lon="5.09801">
        <ele>415</ele>
        <time>2009-04-14T12:05:07.000Z</time>
      </trkpt>
      <trkpt lat="44.39096" lon="5.09804">
        <ele>419</ele>
        <time>2009-04-14T12:05:20.000Z</time>
      </trkpt>
      <trkpt lat="44.39091" lon="5.09811">
        <ele>424</ele>
        <time>2009-04-14T12:05:35.000Z</time>
      </trkpt>
      <trkpt lat="44.39082" lon="5.09825">
        <ele>425</ele>
        <time>2009-04-14T12:05:47.000Z</time>
      </trkpt>
      <trkpt lat="44.39063" lon="5.09868">
        <ele>422</ele>
        <time>2009-04-14T12:06:21.000Z</time>
      </trkpt>
      <trkpt lat="44.39048" lon="5.09881">
        <ele>426</ele>
        <time>2009-04-14T12:06:35.000Z</time>
      </trkpt>
      <trkpt lat="44.39031" lon="5.09894">
        <ele>436</ele>
        <time>2009-04-14T12:06:49.000Z</time>
      </trkpt>
      <trkpt lat="44.39026" lon="5.09897">
        <ele>439</ele>
        <time>2009-04-14T12:06:53.000Z</time>
      </trkpt>
      <trkpt lat="44.39021" lon="5.09904">
        <ele>442</ele>
        <time>2009-04-14T12:06:57.000Z</time>
      </trkpt>
      <trkpt lat="44.39017" lon="5.09912">
        <ele>443</ele>
        <time>2009-04-14T12:07:01.000Z</time>
      </trkpt>
      <trkpt lat="44.39009" lon="5.09917">
        <ele>445</ele>
        <time>2009-04-14T12:07:08.000Z</time>
      </trkpt>
      <trkpt lat="44.38999" lon="5.09921">
        <ele>439</ele>
        <time>2009-04-14T12:07:17.000Z</time>
      </trkpt>
      <trkpt lat="44.38994" lon="5.09926">
        <ele>434</ele>
        <time>2009-04-14T12:07:23.000Z</time>
      </trkpt>
      <trkpt lat="44.38988" lon="5.09929">
        <ele>432</ele>
        <time>2009-04-14T12:07:28.000Z</time>
      </trkpt>
      <trkpt lat="44.38982" lon="5.09932">
        <ele>429</ele>
        <time>2009-04-14T12:07:33.000Z</time>
      </trkpt>
      <trkpt lat="44.38975" lon="5.09937">
        <ele>422</ele>
        <time>2009-04-14T12:07:42.000Z</time>
      </trkpt>
      <trkpt lat="44.38969" lon="5.09935">
        <ele>423</ele>
        <time>2009-04-14T12:07:47.000Z</time>
      </trkpt>
      <trkpt lat="44.3896" lon="5.09912">
        <ele>431</ele>
        <time>2009-04-14T12:08:05.000Z</time>
      </trkpt>
      <trkpt lat="44.38958" lon="5.09914">
        <ele>433</ele>
        <time>2009-04-14T12:08:16.000Z</time>
      </trkpt>
      <trkpt lat="44.38962" lon="5.09924">
        <ele>432</ele>
        <time>2009-04-14T12:08:22.000Z</time>
      </trkpt>
      <trkpt lat="44.38969" lon="5.09939">
        <ele>438</ele>
        <time>2009-04-14T12:08:33.000Z</time>
      </trkpt>
      <trkpt lat="44.38963" lon="5.09971">
        <ele>435</ele>
        <time>2009-04-14T12:08:54.000Z</time>
      </trkpt>
      <trkpt lat="44.38958" lon="5.09977">
        <ele>439</ele>
        <time>2009-04-14T12:08:59.000Z</time>
      </trkpt>
      <trkpt lat="44.38943" lon="5.09987">
        <ele>444</ele>
        <time>2009-04-14T12:09:14.000Z</time>
      </trkpt>
      <trkpt lat="44.38937" lon="5.09991">
        <ele>445</ele>
        <time>2009-04-14T12:09:20.000Z</time>
      </trkpt>
      <trkpt lat="44.38931" lon="5.09997">
        <ele>442</ele>
        <time>2009-04-14T12:09:26.000Z</time>
      </trkpt>
      <trkpt lat="44.38912" lon="5.10007">
        <ele>433</ele>
        <time>2009-04-14T12:09:42.000Z</time>
      </trkpt>
      <trkpt lat="44.38879" lon="5.10017">
        <ele>428</ele>
        <time>2009-04-14T12:10:12.000Z</time>
      </trkpt>
      <trkpt lat="44.38833" lon="5.10011">
        <ele>423</ele>
        <time>2009-04-14T12:10:52.000Z</time>
      </trkpt>
      <trkpt lat="44.38832" lon="5.10011">
        <ele>423</ele>
        <time>2009-04-14T12:10:53.000Z</time>
      </trkpt>
      <trkpt lat="44.38811" lon="5.10012">
        <ele>430</ele>
        <time>2009-04-14T12:11:11.000Z</time>
      </trkpt>
      <trkpt lat="44.38765" lon="5.10009">
        <ele>429</ele>
        <time>2009-04-14T12:11:51.000Z</time>
      </trkpt>
      <trkpt lat="44.38764" lon="5.10009">
        <ele>429</ele>
        <time>2009-04-14T12:11:52.000Z</time>
      </trkpt>
      <trkpt lat="44.38737" lon="5.10008">
        <ele>431</ele>
        <time>2009-04-14T12:12:15.000Z</time>
      </trkpt>
      <trkpt lat="44.38725" lon="5.10016">
        <ele>432</ele>
        <time>2009-04-14T12:12:27.000Z</time>
      </trkpt>
      <trkpt lat="44.38717" lon="5.10025">
        <ele>432</ele>
        <time>2009-04-14T12:12:36.000Z</time>
      </trkpt>
      <trkpt lat="44.38714" lon="5.10042">
        <ele>434</ele>
        <time>2009-04-14T12:12:48.000Z</time>
      </trkpt>
      <trkpt lat="44.38735" lon="5.1007">
        <ele>438</ele>
        <time>2009-04-14T12:13:15.000Z</time>
      </trkpt>
      <trkpt lat="44.38746" lon="5.1008">
        <ele>440</ele>
        <time>2009-04-14T12:13:27.000Z</time>
      </trkpt>
      <trkpt lat="44.38763" lon="5.10087">
        <ele>445</ele>
        <time>2009-04-14T12:13:42.000Z</time>
      </trkpt>
      <trkpt lat="44.38773" lon="5.10098">
        <ele>446</ele>
        <time>2009-04-14T12:13:54.000Z</time>
      </trkpt>
      <trkpt lat="44.38801" lon="5.10148">
        <ele>441</ele>
        <time>2009-04-14T12:14:41.000Z</time>
      </trkpt>
      <trkpt lat="44.38801" lon="5.10149">
        <ele>441</ele>
        <time>2009-04-14T12:14:42.000Z</time>
      </trkpt>
      <trkpt lat="44.3881" lon="5.1017">
        <ele>442</ele>
        <time>2009-04-14T12:15:07.000Z</time>
      </trkpt>
      <trkpt lat="44.38817" lon="5.10181">
        <ele>443</ele>
        <time>2009-04-14T12:15:16.000Z</time>
      </trkpt>
      <trkpt lat="44.38845" lon="5.10203">
        <ele>447</ele>
        <time>2009-04-14T12:15:42.000Z</time>
      </trkpt>
      <trkpt lat="44.38869" lon="5.10223">
        <ele>448</ele>
        <time>2009-04-14T12:16:06.000Z</time>
      </trkpt>
      <trkpt lat="44.38884" lon="5.10237">
        <ele>447</ele>
        <time>2009-04-14T12:16:24.000Z</time>
      </trkpt>
      <trkpt lat="44.3889" lon="5.10236">
        <ele>449</ele>
        <time>2009-04-14T12:16:30.000Z</time>
      </trkpt>
      <trkpt lat="44.38906" lon="5.10219">
        <ele>451</ele>
        <time>2009-04-14T12:16:48.000Z</time>
      </trkpt>
      <trkpt lat="44.38921" lon="5.10199">
        <ele>448</ele>
        <time>2009-04-14T12:17:05.000Z</time>
      </trkpt>
      <trkpt lat="44.38927" lon="5.10197">
        <ele>449</ele>
        <time>2009-04-14T12:17:11.000Z</time>
      </trkpt>
      <trkpt lat="44.38932" lon="5.10202">
        <ele>453</ele>
        <time>2009-04-14T12:17:19.000Z</time>
      </trkpt>
      <trkpt lat="44.38952" lon="5.10225">
        <ele>459</ele>
        <time>2009-04-14T12:17:44.000Z</time>
      </trkpt>
      <trkpt lat="44.38961" lon="5.10246">
        <ele>462</ele>
        <time>2009-04-14T12:17:59.000Z</time>
      </trkpt>
      <trkpt lat="44.38964" lon="5.10262">
        <ele>464</ele>
        <time>2009-04-14T12:18:42.000Z</time>
      </trkpt>
      <trkpt lat="44.38972" lon="5.10309">
        <ele>458</ele>
        <time>2009-04-14T12:19:16.000Z</time>
      </trkpt>
      <trkpt lat="44.38976" lon="5.10315">
        <ele>458</ele>
        <time>2009-04-14T12:19:23.000Z</time>
      </trkpt>
      <trkpt lat="44.3898" lon="5.10321">
        <ele>456</ele>
        <time>2009-04-14T12:19:40.000Z</time>
      </trkpt>
      <trkpt lat="44.38994" lon="5.10338">
        <ele>459</ele>
        <time>2009-04-14T12:20:01.000Z</time>
      </trkpt>
      <trkpt lat="44.39015" lon="5.10349">
        <ele>466</ele>
        <time>2009-04-14T12:20:21.000Z</time>
      </trkpt>
      <trkpt lat="44.39019" lon="5.10355">
        <ele>467</ele>
        <time>2009-04-14T12:20:26.000Z</time>
      </trkpt>
      <trkpt lat="44.39027" lon="5.1037">
        <ele>466</ele>
        <time>2009-04-14T12:20:38.000Z</time>
      </trkpt>
      <trkpt lat="44.3904" lon="5.10382">
        <ele>463</ele>
        <time>2009-04-14T12:20:53.000Z</time>
      </trkpt>
      <trkpt lat="44.39051" lon="5.1039">
        <ele>464</ele>
        <time>2009-04-14T12:21:06.000Z</time>
      </trkpt>
      <trkpt lat="44.3908" lon="5.104">
        <ele>467</ele>
        <time>2009-04-14T12:21:34.000Z</time>
      </trkpt>
      <trkpt lat="44.3909" lon="5.10402">
        <ele>468</ele>
        <time>2009-04-14T12:21:43.000Z</time>
      </trkpt>
      <trkpt lat="44.39131" lon="5.10427">
        <ele>475</ele>
        <time>2009-04-14T12:22:21.000Z</time>
      </trkpt>
      <trkpt lat="44.39132" lon="5.10428">
        <ele>475</ele>
        <time>2009-04-14T12:22:22.000Z</time>
      </trkpt>
      <trkpt lat="44.39171" lon="5.10455">
        <ele>477</ele>
        <time>2009-04-14T12:23:09.000Z</time>
      </trkpt>
      <trkpt lat="44.39206" lon="5.10484">
        <ele>476</ele>
        <time>2009-04-14T12:23:48.000Z</time>
      </trkpt>
      <trkpt lat="44.39208" lon="5.10491">
        <ele>475</ele>
        <time>2009-04-14T12:23:57.000Z</time>
      </trkpt>
      <trkpt lat="44.39203" lon="5.10492">
        <ele>473</ele>
        <time>2009-04-14T12:24:07.000Z</time>
      </trkpt>
      <trkpt lat="44.39202" lon="5.10493">
        <ele>472</ele>
        <time>2009-04-14T12:24:16.000Z</time>
      </trkpt>
      <trkpt lat="44.39206" lon="5.10498">
        <ele>471</ele>
        <time>2009-04-14T12:24:27.000Z</time>
      </trkpt>
      <trkpt lat="44.39203" lon="5.10503">
        <ele>469</ele>
        <time>2009-04-14T12:24:40.000Z</time>
      </trkpt>
      <trkpt lat="44.39199" lon="5.10508">
        <ele>462</ele>
        <time>2009-04-14T12:24:52.000Z</time>
      </trkpt>
      <trkpt lat="44.39204" lon="5.10534">
        <ele>463</ele>
        <time>2009-04-14T12:25:23.000Z</time>
      </trkpt>
      <trkpt lat="44.39207" lon="5.10542">
        <ele>465</ele>
        <time>2009-04-14T12:25:29.000Z</time>
      </trkpt>
      <trkpt lat="44.39213" lon="5.10553">
        <ele>467</ele>
        <time>2009-04-14T12:25:38.000Z</time>
      </trkpt>
      <trkpt lat="44.39226" lon="5.1058">
        <ele>466</ele>
        <time>2009-04-14T12:25:58.000Z</time>
      </trkpt>
      <trkpt lat="44.39233" lon="5.10601">
        <ele>463</ele>
        <time>2009-04-14T12:26:12.000Z</time>
      </trkpt>
      <trkpt lat="44.39255" lon="5.10656">
        <ele>468</ele>
        <time>2009-04-14T12:26:53.000Z</time>
      </trkpt>
      <trkpt lat="44.39256" lon="5.10658">
        <ele>468</ele>
        <time>2009-04-14T12:26:54.000Z</time>
      </trkpt>
      <trkpt lat="44.39259" lon="5.10662">
        <ele>468</ele>
        <time>2009-04-14T12:27:00.000Z</time>
      </trkpt>
      <trkpt lat="44.39264" lon="5.10667">
        <ele>468</ele>
        <time>2009-04-14T12:27:24.000Z</time>
      </trkpt>
      <trkpt lat="44.39262" lon="5.10673">
        <ele>465</ele>
        <time>2009-04-14T12:27:51.000Z</time>
      </trkpt>
      <trkpt lat="44.39259" lon="5.10676">
        <ele>472</ele>
        <time>2009-04-14T12:28:47.000Z</time>
      </trkpt>
      <trkpt lat="44.39265" lon="5.10676">
        <ele>469</ele>
        <time>2009-04-14T12:28:55.000Z</time>
      </trkpt>
      <trkpt lat="44.39276" lon="5.10685">
        <ele>467</ele>
        <time>2009-04-14T12:29:12.000Z</time>
      </trkpt>
      <trkpt lat="44.3928" lon="5.10689">
        <ele>467</ele>
        <time>2009-04-14T12:29:19.000Z</time>
      </trkpt>
      <trkpt lat="44.39283" lon="5.10695">
        <ele>468</ele>
        <time>2009-04-14T12:29:27.000Z</time>
      </trkpt>
      <trkpt lat="44.39294" lon="5.1071">
        <ele>473</ele>
        <time>2009-04-14T12:29:45.000Z</time>
      </trkpt>
      <trkpt lat="44.39302" lon="5.10729">
        <ele>474</ele>
        <time>2009-04-14T12:30:01.000Z</time>
      </trkpt>
      <trkpt lat="44.39315" lon="5.10754">
        <ele>479</ele>
        <time>2009-04-14T12:30:21.000Z</time>
      </trkpt>
      <trkpt lat="44.39322" lon="5.10774">
        <ele>479</ele>
        <time>2009-04-14T12:31:04.000Z</time>
      </trkpt>
      <trkpt lat="44.39321" lon="5.10785">
        <ele>504</ele>
        <time>2009-04-14T12:31:29.000Z</time>
      </trkpt>
      <trkpt lat="44.39323" lon="5.10789">
        <ele>530</ele>
        <time>2009-04-14T12:31:56.000Z</time>
      </trkpt>
      <trkpt lat="44.39329" lon="5.10788">
        <ele>516</ele>
        <time>2009-04-14T12:32:04.000Z</time>
      </trkpt>
      <trkpt lat="44.39342" lon="5.10796">
        <ele>484</ele>
        <time>2009-04-14T12:32:22.000Z</time>
      </trkpt>
      <trkpt lat="44.39348" lon="5.10805">
        <ele>474</ele>
        <time>2009-04-14T12:32:34.000Z</time>
      </trkpt>
      <trkpt lat="44.39354" lon="5.10813">
        <ele>473</ele>
        <time>2009-04-14T12:32:44.000Z</time>
      </trkpt>
      <trkpt lat="44.39356" lon="5.1082">
        <ele>474</ele>
        <time>2009-04-14T12:32:50.000Z</time>
      </trkpt>
      <trkpt lat="44.3936" lon="5.10827">
        <ele>476</ele>
        <time>2009-04-14T12:32:58.000Z</time>
      </trkpt>
      <trkpt lat="44.39363" lon="5.10845">
        <ele>483</ele>
        <time>2009-04-14T12:33:10.000Z</time>
      </trkpt>
      <trkpt lat="44.39366" lon="5.10854">
        <ele>484</ele>
        <time>2009-04-14T12:33:16.000Z</time>
      </trkpt>
      <trkpt lat="44.39372" lon="5.1088">
        <ele>489</ele>
        <time>2009-04-14T12:33:35.000Z</time>
      </trkpt>
      <trkpt lat="44.39374" lon="5.10887">
        <ele>491</ele>
        <time>2009-04-14T12:33:41.000Z</time>
      </trkpt>
      <trkpt lat="44.39376" lon="5.10895">
        <ele>493</ele>
        <time>2009-04-14T12:33:47.000Z</time>
      </trkpt>
      <trkpt lat="44.39382" lon="5.10914">
        <ele>495</ele>
        <time>2009-04-14T12:34:02.000Z</time>
      </trkpt>
      <trkpt lat="44.39384" lon="5.10922">
        <ele>495</ele>
        <time>2009-04-14T12:34:08.000Z</time>
      </trkpt>
      <trkpt lat="44.39386" lon="5.1093">
        <ele>495</ele>
        <time>2009-04-14T12:34:15.000Z</time>
      </trkpt>
      <trkpt lat="44.39385" lon="5.10943">
        <ele>497</ele>
        <time>2009-04-14T12:34:25.000Z</time>
      </trkpt>
      <trkpt lat="44.39384" lon="5.10952">
        <ele>500</ele>
        <time>2009-04-14T12:34:33.000Z</time>
      </trkpt>
      <trkpt lat="44.39375" lon="5.10984">
        <ele>491</ele>
        <time>2009-04-14T12:35:00.000Z</time>
      </trkpt>
      <trkpt lat="44.39374" lon="5.11001">
        <ele>494</ele>
        <time>2009-04-14T12:35:12.000Z</time>
      </trkpt>
      <trkpt lat="44.39372" lon="5.1101">
        <ele>496</ele>
        <time>2009-04-14T12:35:18.000Z</time>
      </trkpt>
      <trkpt lat="44.39369" lon="5.11018">
        <ele>497</ele>
        <time>2009-04-14T12:35:24.000Z</time>
      </trkpt>
      <trkpt lat="44.39365" lon="5.11029">
        <ele>499</ele>
        <time>2009-04-14T12:35:33.000Z</time>
      </trkpt>
      <trkpt lat="44.39363" lon="5.11041">
        <ele>499</ele>
        <time>2009-04-14T12:35:43.000Z</time>
      </trkpt>
      <trkpt lat="44.39361" lon="5.1105">
        <ele>500</ele>
        <time>2009-04-14T12:35:49.000Z</time>
      </trkpt>
      <trkpt lat="44.39359" lon="5.11059">
        <ele>502</ele>
        <time>2009-04-14T12:35:55.000Z</time>
      </trkpt>
      <trkpt lat="44.39351" lon="5.11095">
        <ele>504</ele>
        <time>2009-04-14T12:36:22.000Z</time>
      </trkpt>
      <trkpt lat="44.39345" lon="5.11114">
        <ele>508</ele>
        <time>2009-04-14T12:36:37.000Z</time>
      </trkpt>
      <trkpt lat="44.39344" lon="5.11122">
        <ele>510</ele>
        <time>2009-04-14T12:36:43.000Z</time>
      </trkpt>
      <trkpt lat="44.39342" lon="5.11129">
        <ele>514</ele>
        <time>2009-04-14T12:36:49.000Z</time>
      </trkpt>
      <trkpt lat="44.39337" lon="5.11139">
        <ele>520</ele>
        <time>2009-04-14T12:36:58.000Z</time>
      </trkpt>
      <trkpt lat="44.39331" lon="5.11149">
        <ele>523</ele>
        <time>2009-04-14T12:37:07.000Z</time>
      </trkpt>
      <trkpt lat="44.39321" lon="5.11163">
        <ele>516</ele>
        <time>2009-04-14T12:37:23.000Z</time>
      </trkpt>
      <trkpt lat="44.3932" lon="5.11173">
        <ele>511</ele>
        <time>2009-04-14T12:37:59.000Z</time>
      </trkpt>
      <trkpt lat="44.39325" lon="5.11174">
        <ele>500</ele>
        <time>2009-04-14T12:38:57.000Z</time>
      </trkpt>
      <trkpt lat="44.39322" lon="5.11181">
        <ele>506</ele>
        <time>2009-04-14T12:39:23.000Z</time>
      </trkpt>
      <trkpt lat="44.39325" lon="5.11188">
        <ele>505</ele>
        <time>2009-04-14T12:39:31.000Z</time>
      </trkpt>
      <trkpt lat="44.39328" lon="5.11195">
        <ele>508</ele>
        <time>2009-04-14T12:39:47.000Z</time>
      </trkpt>
      <trkpt lat="44.39324" lon="5.11198">
        <ele>508</ele>
        <time>2009-04-14T12:40:19.000Z</time>
      </trkpt>
      <trkpt lat="44.39324" lon="5.11208">
        <ele>513</ele>
        <time>2009-04-14T12:40:55.000Z</time>
      </trkpt>
      <trkpt lat="44.39326" lon="5.11216">
        <ele>516</ele>
        <time>2009-04-14T12:41:03.000Z</time>
      </trkpt>
      <trkpt lat="44.39327" lon="5.11225">
        <ele>524</ele>
        <time>2009-04-14T12:41:19.000Z</time>
      </trkpt>
      <trkpt lat="44.3933" lon="5.11234">
        <ele>527</ele>
        <time>2009-04-14T12:41:27.000Z</time>
      </trkpt>
      <trkpt lat="44.39334" lon="5.11239">
        <ele>525</ele>
        <time>2009-04-14T12:41:36.000Z</time>
      </trkpt>
      <trkpt lat="44.39339" lon="5.11236">
        <ele>522</ele>
        <time>2009-04-14T12:41:49.000Z</time>
      </trkpt>
      <trkpt lat="44.39354" lon="5.11241">
        <ele>517</ele>
        <time>2009-04-14T12:42:16.000Z</time>
      </trkpt>
      <trkpt lat="44.39357" lon="5.11251">
        <ele>524</ele>
        <time>2009-04-14T12:42:55.000Z</time>
      </trkpt>
      <trkpt lat="44.39361" lon="5.11257">
        <ele>519</ele>
        <time>2009-04-14T12:43:04.000Z</time>
      </trkpt>
      <trkpt lat="44.39365" lon="5.11265">
        <ele>516</ele>
        <time>2009-04-14T12:43:18.000Z</time>
      </trkpt>
      <trkpt lat="44.3937" lon="5.11269">
        <ele>518</ele>
        <time>2009-04-14T12:43:25.000Z</time>
      </trkpt>
      <trkpt lat="44.39377" lon="5.11272">
        <ele>521</ele>
        <time>2009-04-14T12:43:33.000Z</time>
      </trkpt>
      <trkpt lat="44.39382" lon="5.11275">
        <ele>521</ele>
        <time>2009-04-14T12:43:45.000Z</time>
      </trkpt>
      <trkpt lat="44.39386" lon="5.11282">
        <ele>521</ele>
        <time>2009-04-14T12:43:54.000Z</time>
      </trkpt>
      <trkpt lat="44.39392" lon="5.11293">
        <ele>519</ele>
        <time>2009-04-14T12:44:08.000Z</time>
      </trkpt>
      <trkpt lat="44.39397" lon="5.1129">
        <ele>518</ele>
        <time>2009-04-14T12:44:44.000Z</time>
      </trkpt>
      <trkpt lat="44.39409" lon="5.11288">
        <ele>524</ele>
        <time>2009-04-14T12:45:03.000Z</time>
      </trkpt>
      <trkpt lat="44.39415" lon="5.11288">
        <ele>525</ele>
        <time>2009-04-14T12:45:11.000Z</time>
      </trkpt>
      <trkpt lat="44.39417" lon="5.1128">
        <ele>520</ele>
        <time>2009-04-14T12:45:42.000Z</time>
      </trkpt>
      <trkpt lat="44.39415" lon="5.11273">
        <ele>514</ele>
        <time>2009-04-14T12:45:52.000Z</time>
      </trkpt>
      <trkpt lat="44.39421" lon="5.11277">
        <ele>527</ele>
        <time>2009-04-14T12:46:22.000Z</time>
      </trkpt>
      <trkpt lat="44.39423" lon="5.11286">
        <ele>531</ele>
        <time>2009-04-14T12:46:32.000Z</time>
      </trkpt>
      <trkpt lat="44.39417" lon="5.11296">
        <ele>514</ele>
        <time>2009-04-14T12:46:59.000Z</time>
      </trkpt>
      <trkpt lat="44.39421" lon="5.113">
        <ele>514</ele>
        <time>2009-04-14T12:47:09.000Z</time>
      </trkpt>
      <trkpt lat="44.39434" lon="5.11296">
        <ele>521</ele>
        <time>2009-04-14T12:47:25.000Z</time>
      </trkpt>
      <trkpt lat="44.39439" lon="5.11294">
        <ele>526</ele>
        <time>2009-04-14T12:47:36.000Z</time>
      </trkpt>
      <trkpt lat="44.39446" lon="5.11292">
        <ele>527</ele>
        <time>2009-04-14T12:47:44.000Z</time>
      </trkpt>
      <trkpt lat="44.39466" lon="5.11282">
        <ele>523</ele>
        <time>2009-04-14T12:48:12.000Z</time>
      </trkpt>
      <trkpt lat="44.39491" lon="5.1128">
        <ele>523</ele>
        <time>2009-04-14T12:48:52.000Z</time>
      </trkpt>
      <trkpt lat="44.39495" lon="5.11292">
        <ele>523</ele>
        <time>2009-04-14T12:49:03.000Z</time>
      </trkpt>
      <trkpt lat="44.39499" lon="5.11299">
        <ele>523</ele>
        <time>2009-04-14T12:49:10.000Z</time>
      </trkpt>
      <trkpt lat="44.39503" lon="5.11308">
        <ele>524</ele>
        <time>2009-04-14T12:49:22.000Z</time>
      </trkpt>
      <trkpt lat="44.39505" lon="5.11316">
        <ele>522</ele>
        <time>2009-04-14T12:49:43.000Z</time>
      </trkpt>
      <trkpt lat="44.39497" lon="5.11315">
        <ele>509</ele>
        <time>2009-04-14T12:50:46.000Z</time>
      </trkpt>
      <trkpt lat="44.39499" lon="5.11327">
        <ele>519</ele>
        <time>2009-04-14T12:50:59.000Z</time>
      </trkpt>
      <trkpt lat="44.39504" lon="5.11333">
        <ele>529</ele>
        <time>2009-04-14T12:51:07.000Z</time>
      </trkpt>
      <trkpt lat="44.3952" lon="5.11347">
        <ele>556</ele>
        <time>2009-04-14T12:51:29.000Z</time>
      </trkpt>
      <trkpt lat="44.39521" lon="5.11359">
        <ele>550</ele>
        <time>2009-04-14T12:51:41.000Z</time>
      </trkpt>
      <trkpt lat="44.39519" lon="5.11368">
        <ele>549</ele>
        <time>2009-04-14T12:51:53.000Z</time>
      </trkpt>
      <trkpt lat="44.39519" lon="5.11383">
        <ele>539</ele>
        <time>2009-04-14T12:53:05.000Z</time>
      </trkpt>
      <trkpt lat="44.39521" lon="5.11394">
        <ele>543</ele>
        <time>2009-04-14T12:53:22.000Z</time>
      </trkpt>
      <trkpt lat="44.39526" lon="5.11403">
        <ele>545</ele>
        <time>2009-04-14T12:53:33.000Z</time>
      </trkpt>
      <trkpt lat="44.3953" lon="5.11408">
        <ele>547</ele>
        <time>2009-04-14T12:53:49.000Z</time>
      </trkpt>
      <trkpt lat="44.39526" lon="5.11411">
        <ele>537</ele>
        <time>2009-04-14T12:55:10.000Z</time>
      </trkpt>
      <trkpt lat="44.3952" lon="5.11419">
        <ele>547</ele>
        <time>2009-04-14T12:56:22.000Z</time>
      </trkpt>
      <trkpt lat="44.39511" lon="5.11424">
        <ele>550</ele>
        <time>2009-04-14T12:56:51.000Z</time>
      </trkpt>
      <trkpt lat="44.39503" lon="5.11422">
        <ele>532</ele>
        <time>2009-04-14T12:57:24.000Z</time>
      </trkpt>
      <trkpt lat="44.39505" lon="5.1142">
        <ele>538</ele>
        <time>2009-04-14T12:58:39.000Z</time>
      </trkpt>
      <trkpt lat="44.39511" lon="5.11429">
        <ele>541</ele>
        <time>2009-04-14T12:58:53.000Z</time>
      </trkpt>
      <trkpt lat="44.39518" lon="5.11435">
        <ele>543</ele>
        <time>2009-04-14T12:59:03.000Z</time>
      </trkpt>
      <trkpt lat="44.3952" lon="5.11442">
        <ele>545</ele>
        <time>2009-04-14T12:59:10.000Z</time>
      </trkpt>
      <trkpt lat="44.39518" lon="5.1145">
        <ele>549</ele>
        <time>2009-04-14T12:59:18.000Z</time>
      </trkpt>
      <trkpt lat="44.39519" lon="5.11457">
        <ele>549</ele>
        <time>2009-04-14T12:59:35.000Z</time>
      </trkpt>
      <trkpt lat="44.39524" lon="5.11463">
        <ele>547</ele>
        <time>2009-04-14T12:59:42.000Z</time>
      </trkpt>
      <trkpt lat="44.39528" lon="5.11469">
        <ele>547</ele>
        <time>2009-04-14T12:59:52.000Z</time>
      </trkpt>
      <trkpt lat="44.39531" lon="5.11477">
        <ele>551</ele>
        <time>2009-04-14T13:00:09.000Z</time>
      </trkpt>
      <trkpt lat="44.39536" lon="5.11481">
        <ele>553</ele>
        <time>2009-04-14T13:00:17.000Z</time>
      </trkpt>
      <trkpt lat="44.39542" lon="5.11484">
        <ele>552</ele>
        <time>2009-04-14T13:00:32.000Z</time>
      </trkpt>
      <trkpt lat="44.39554" lon="5.11485">
        <ele>555</ele>
        <time>2009-04-14T13:00:52.000Z</time>
      </trkpt>
      <trkpt lat="44.39562" lon="5.11491">
        <ele>548</ele>
        <time>2009-04-14T13:01:02.000Z</time>
      </trkpt>
      <trkpt lat="44.39568" lon="5.11502">
        <ele>546</ele>
        <time>2009-04-14T13:01:14.000Z</time>
      </trkpt>
      <trkpt lat="44.39579" lon="5.11509">
        <ele>550</ele>
        <time>2009-04-14T13:01:31.000Z</time>
      </trkpt>
      <trkpt lat="44.39587" lon="5.11514">
        <ele>550</ele>
        <time>2009-04-14T13:01:41.000Z</time>
      </trkpt>
      <trkpt lat="44.39592" lon="5.11514">
        <ele>549</ele>
        <time>2009-04-14T13:01:51.000Z</time>
      </trkpt>
      <trkpt lat="44.39601" lon="5.11517">
        <ele>547</ele>
        <time>2009-04-14T13:01:59.000Z</time>
      </trkpt>
      <trkpt lat="44.39607" lon="5.11521">
        <ele>549</ele>
        <time>2009-04-14T13:02:07.000Z</time>
      </trkpt>
      <trkpt lat="44.39614" lon="5.11526">
        <ele>550</ele>
        <time>2009-04-14T13:02:16.000Z</time>
      </trkpt>
      <trkpt lat="44.39616" lon="5.11533">
        <ele>557</ele>
        <time>2009-04-14T13:02:42.000Z</time>
      </trkpt>
      <trkpt lat="44.39619" lon="5.11533">
        <ele>556</ele>
        <time>2009-04-14T13:02:53.000Z</time>
      </trkpt>
      <trkpt lat="44.39622" lon="5.1154">
        <ele>557</ele>
        <time>2009-04-14T13:02:59.000Z</time>
      </trkpt>
      <trkpt lat="44.39634" lon="5.11544">
        <ele>556</ele>
        <time>2009-04-14T13:03:12.000Z</time>
      </trkpt>
      <trkpt lat="44.3964" lon="5.11545">
        <ele>557</ele>
        <time>2009-04-14T13:03:21.000Z</time>
      </trkpt>
      <trkpt lat="44.39645" lon="5.11548">
        <ele>560</ele>
        <time>2009-04-14T13:03:37.000Z</time>
      </trkpt>
      <trkpt lat="44.39656" lon="5.11556">
        <ele>570</ele>
        <time>2009-04-14T13:03:54.000Z</time>
      </trkpt>
      <trkpt lat="44.39661" lon="5.11555">
        <ele>571</ele>
        <time>2009-04-14T13:04:05.000Z</time>
      </trkpt>
      <trkpt lat="44.39667" lon="5.11552">
        <ele>569</ele>
        <time>2009-04-14T13:04:18.000Z</time>
      </trkpt>
      <trkpt lat="44.39676" lon="5.11548">
        <ele>567</ele>
        <time>2009-04-14T13:04:40.000Z</time>
      </trkpt>
      <trkpt lat="44.39691" lon="5.11545">
        <ele>571</ele>
        <time>2009-04-14T13:06:23.000Z</time>
      </trkpt>
      <trkpt lat="44.39693" lon="5.11551">
        <ele>574</ele>
        <time>2009-04-14T13:06:40.000Z</time>
      </trkpt>
      <trkpt lat="44.39694" lon="5.11548">
        <ele>572</ele>
        <time>2009-04-14T13:07:48.000Z</time>
      </trkpt>
      <trkpt lat="44.397" lon="5.11546">
        <ele>568</ele>
        <time>2009-04-14T13:09:10.000Z</time>
      </trkpt>
      <trkpt lat="44.39722" lon="5.11548">
        <ele>586</ele>
        <time>2009-04-14T13:09:46.000Z</time>
      </trkpt>
      <trkpt lat="44.3973" lon="5.11553">
        <ele>588</ele>
        <time>2009-04-14T13:09:58.000Z</time>
      </trkpt>
      <trkpt lat="44.39735" lon="5.11556">
        <ele>587</ele>
        <time>2009-04-14T13:10:06.000Z</time>
      </trkpt>
      <trkpt lat="44.39755" lon="5.11569">
        <ele>592</ele>
        <time>2009-04-14T13:10:36.000Z</time>
      </trkpt>
      <trkpt lat="44.39766" lon="5.11575">
        <ele>598</ele>
        <time>2009-04-14T13:11:00.000Z</time>
      </trkpt>
      <trkpt lat="44.39775" lon="5.11576">
        <ele>598</ele>
        <time>2009-04-14T13:11:12.000Z</time>
      </trkpt>
      <trkpt lat="44.3978" lon="5.11572">
        <ele>599</ele>
        <time>2009-04-14T13:11:21.000Z</time>
      </trkpt>
      <trkpt lat="44.39786" lon="5.11574">
        <ele>595</ele>
        <time>2009-04-14T13:11:37.000Z</time>
      </trkpt>
      <trkpt lat="44.39791" lon="5.11574">
        <ele>600</ele>
        <time>2009-04-14T13:11:49.000Z</time>
      </trkpt>
      <trkpt lat="44.39809" lon="5.11569">
        <ele>595</ele>
        <time>2009-04-14T13:12:15.000Z</time>
      </trkpt>
      <trkpt lat="44.39821" lon="5.11566">
        <ele>592</ele>
        <time>2009-04-14T13:12:32.000Z</time>
      </trkpt>
      <trkpt lat="44.39827" lon="5.11564">
        <ele>592</ele>
        <time>2009-04-14T13:12:40.000Z</time>
      </trkpt>
      <trkpt lat="44.39842" lon="5.11557">
        <ele>601</ele>
        <time>2009-04-14T13:13:03.000Z</time>
      </trkpt>
      <trkpt lat="44.3985" lon="5.11554">
        <ele>606</ele>
        <time>2009-04-14T13:13:14.000Z</time>
      </trkpt>
      <trkpt lat="44.39855" lon="5.11549">
        <ele>607</ele>
        <time>2009-04-14T13:13:22.000Z</time>
      </trkpt>
      <trkpt lat="44.39863" lon="5.11547">
        <ele>607</ele>
        <time>2009-04-14T13:13:37.000Z</time>
      </trkpt>
      <trkpt lat="44.3987" lon="5.11547">
        <ele>606</ele>
        <time>2009-04-14T13:13:44.000Z</time>
      </trkpt>
      <trkpt lat="44.39879" lon="5.11545">
        <ele>607</ele>
        <time>2009-04-14T13:13:57.000Z</time>
      </trkpt>
      <trkpt lat="44.39885" lon="5.11542">
        <ele>608</ele>
        <time>2009-04-14T13:14:06.000Z</time>
      </trkpt>
      <trkpt lat="44.39899" lon="5.11544">
        <ele>615</ele>
        <time>2009-04-14T13:14:35.000Z</time>
      </trkpt>
      <trkpt lat="44.39913" lon="5.11541">
        <ele>619</ele>
        <time>2009-04-14T13:15:00.000Z</time>
      </trkpt>
      <trkpt lat="44.3992" lon="5.11538">
        <ele>623</ele>
        <time>2009-04-14T13:15:27.000Z</time>
      </trkpt>
      <trkpt lat="44.39921" lon="5.11547">
        <ele>620</ele>
        <time>2009-04-14T13:15:42.000Z</time>
      </trkpt>
      <trkpt lat="44.39922" lon="5.11554">
        <ele>631</ele>
        <time>2009-04-14T13:16:08.000Z</time>
      </trkpt>
      <trkpt lat="44.39923" lon="5.11561">
        <ele>636</ele>
        <time>2009-04-14T13:16:20.000Z</time>
      </trkpt>
      <trkpt lat="44.39939" lon="5.11572">
        <ele>628</ele>
        <time>2009-04-14T13:16:46.000Z</time>
      </trkpt>
      <trkpt lat="44.39943" lon="5.1158">
        <ele>634</ele>
        <time>2009-04-14T13:17:18.000Z</time>
      </trkpt>
      <trkpt lat="44.39947" lon="5.11582">
        <ele>641</ele>
        <time>2009-04-14T13:18:12.000Z</time>
      </trkpt>
      <trkpt lat="44.39951" lon="5.11586">
        <ele>643</ele>
        <time>2009-04-14T13:18:21.000Z</time>
      </trkpt>
      <trkpt lat="44.39962" lon="5.1159">
        <ele>637</ele>
        <time>2009-04-14T13:18:46.000Z</time>
      </trkpt>
      <trkpt lat="44.39965" lon="5.11596">
        <ele>634</ele>
        <time>2009-04-14T13:18:57.000Z</time>
      </trkpt>
      <trkpt lat="44.39973" lon="5.11613">
        <ele>638</ele>
        <time>2009-04-14T13:19:36.000Z</time>
      </trkpt>
      <trkpt lat="44.39972" lon="5.11613">
        <ele>668</ele>
        <time>2009-04-14T13:20:18.000Z</time>
      </trkpt>
      <trkpt lat="44.39972" lon="5.11613">
        <ele>667</ele>
        <time>2009-04-14T13:20:47.000Z</time>
      </trkpt>
      <trkpt lat="44.39985" lon="5.11606">
        <ele>659</ele>
        <time>2009-04-14T13:21:06.000Z</time>
      </trkpt>
      <trkpt lat="44.39991" lon="5.11601">
        <ele>659</ele>
        <time>2009-04-14T13:21:13.000Z</time>
      </trkpt>
      <trkpt lat="44.39995" lon="5.11594">
        <ele>662</ele>
        <time>2009-04-14T13:21:19.000Z</time>
      </trkpt>
      <trkpt lat="44.40004" lon="5.11582">
        <ele>668</ele>
        <time>2009-04-14T13:21:32.000Z</time>
      </trkpt>
      <trkpt lat="44.40008" lon="5.11577">
        <ele>671</ele>
        <time>2009-04-14T13:21:38.000Z</time>
      </trkpt>
      <trkpt lat="44.40016" lon="5.11564">
        <ele>675</ele>
        <time>2009-04-14T13:21:49.000Z</time>
      </trkpt>
      <trkpt lat="44.40031" lon="5.11544">
        <ele>675</ele>
        <time>2009-04-14T13:22:10.000Z</time>
      </trkpt>
      <trkpt lat="44.40037" lon="5.11533">
        <ele>676</ele>
        <time>2009-04-14T13:22:18.000Z</time>
      </trkpt>
      <trkpt lat="44.40041" lon="5.11527">
        <ele>679</ele>
        <time>2009-04-14T13:22:24.000Z</time>
      </trkpt>
      <trkpt lat="44.40051" lon="5.11513">
        <ele>670</ele>
        <time>2009-04-14T13:22:53.000Z</time>
      </trkpt>
      <trkpt lat="44.40056" lon="5.11509">
        <ele>663</ele>
        <time>2009-04-14T13:23:02.000Z</time>
      </trkpt>
      <trkpt lat="44.40062" lon="5.11499">
        <ele>665</ele>
        <time>2009-04-14T13:23:13.000Z</time>
      </trkpt>
      <trkpt lat="44.40067" lon="5.11493">
        <ele>666</ele>
        <time>2009-04-14T13:23:20.000Z</time>
      </trkpt>
      <trkpt lat="44.40071" lon="5.11482">
        <ele>671</ele>
        <time>2009-04-14T13:23:30.000Z</time>
      </trkpt>
      <trkpt lat="44.40074" lon="5.11474">
        <ele>673</ele>
        <time>2009-04-14T13:23:36.000Z</time>
      </trkpt>
      <trkpt lat="44.40085" lon="5.11453">
        <ele>680</ele>
        <time>2009-04-14T13:23:54.000Z</time>
      </trkpt>
      <trkpt lat="44.40089" lon="5.11448">
        <ele>680</ele>
        <time>2009-04-14T13:24:00.000Z</time>
      </trkpt>
      <trkpt lat="44.40093" lon="5.11441">
        <ele>678</ele>
        <time>2009-04-14T13:24:08.000Z</time>
      </trkpt>
      <trkpt lat="44.40102" lon="5.11419">
        <ele>670</ele>
        <time>2009-04-14T13:24:26.000Z</time>
      </trkpt>
      <trkpt lat="44.40104" lon="5.11411">
        <ele>669</ele>
        <time>2009-04-14T13:24:33.000Z</time>
      </trkpt>
      <trkpt lat="44.40105" lon="5.11384">
        <ele>665</ele>
        <time>2009-04-14T13:24:54.000Z</time>
      </trkpt>
      <trkpt lat="44.40105" lon="5.11365">
        <ele>661</ele>
        <time>2009-04-14T13:25:06.000Z</time>
      </trkpt>
      <trkpt lat="44.40107" lon="5.11353">
        <ele>664</ele>
        <time>2009-04-14T13:25:15.000Z</time>
      </trkpt>
      <trkpt lat="44.40107" lon="5.11344">
        <ele>665</ele>
        <time>2009-04-14T13:25:21.000Z</time>
      </trkpt>
      <trkpt lat="44.40108" lon="5.11336">
        <ele>667</ele>
        <time>2009-04-14T13:25:27.000Z</time>
      </trkpt>
      <trkpt lat="44.40117" lon="5.11319">
        <ele>674</ele>
        <time>2009-04-14T13:25:43.000Z</time>
      </trkpt>
      <trkpt lat="44.40125" lon="5.11311">
        <ele>674</ele>
        <time>2009-04-14T13:25:53.000Z</time>
      </trkpt>
      <trkpt lat="44.40129" lon="5.11304">
        <ele>673</ele>
        <time>2009-04-14T13:25:59.000Z</time>
      </trkpt>
      <trkpt lat="44.40133" lon="5.11298">
        <ele>672</ele>
        <time>2009-04-14T13:26:05.000Z</time>
      </trkpt>
      <trkpt lat="44.40139" lon="5.11292">
        <ele>671</ele>
        <time>2009-04-14T13:26:13.000Z</time>
      </trkpt>
      <trkpt lat="44.40148" lon="5.11275">
        <ele>673</ele>
        <time>2009-04-14T13:26:31.000Z</time>
      </trkpt>
      <trkpt lat="44.40153" lon="5.1127">
        <ele>674</ele>
        <time>2009-04-14T13:26:39.000Z</time>
      </trkpt>
      <trkpt lat="44.40167" lon="5.1126">
        <ele>675</ele>
        <time>2009-04-14T13:26:58.000Z</time>
      </trkpt>
      <trkpt lat="44.4017" lon="5.11253">
        <ele>674</ele>
        <time>2009-04-14T13:27:05.000Z</time>
      </trkpt>
      <trkpt lat="44.40175" lon="5.1125">
        <ele>673</ele>
        <time>2009-04-14T13:27:14.000Z</time>
      </trkpt>
      <trkpt lat="44.40184" lon="5.11246">
        <ele>672</ele>
        <time>2009-04-14T13:27:26.000Z</time>
      </trkpt>
      <trkpt lat="44.40192" lon="5.11252">
        <ele>658</ele>
        <time>2009-04-14T13:29:00.000Z</time>
      </trkpt>
      <trkpt lat="44.40189" lon="5.11262">
        <ele>646</ele>
        <time>2009-04-14T13:29:26.000Z</time>
      </trkpt>
      <trkpt lat="44.40192" lon="5.11253">
        <ele>659</ele>
        <time>2009-04-14T13:29:48.000Z</time>
      </trkpt>
      <trkpt lat="44.40195" lon="5.11238">
        <ele>668</ele>
        <time>2009-04-14T13:30:21.000Z</time>
      </trkpt>
      <trkpt lat="44.40199" lon="5.11235">
        <ele>662</ele>
        <time>2009-04-14T13:30:30.000Z</time>
      </trkpt>
      <trkpt lat="44.40219" lon="5.11215">
        <ele>658</ele>
        <time>2009-04-14T13:31:02.000Z</time>
      </trkpt>
      <trkpt lat="44.40225" lon="5.11214">
        <ele>653</ele>
        <time>2009-04-14T13:31:15.000Z</time>
      </trkpt>
      <trkpt lat="44.4023" lon="5.1121">
        <ele>648</ele>
        <time>2009-04-14T13:31:24.000Z</time>
      </trkpt>
      <trkpt lat="44.40242" lon="5.11191">
        <ele>652</ele>
        <time>2009-04-14T13:31:44.000Z</time>
      </trkpt>
      <trkpt lat="44.40256" lon="5.11177">
        <ele>654</ele>
        <time>2009-04-14T13:32:02.000Z</time>
      </trkpt>
      <trkpt lat="44.40272" lon="5.11164">
        <ele>642</ele>
        <time>2009-04-14T13:32:24.000Z</time>
      </trkpt>
      <trkpt lat="44.40279" lon="5.11156">
        <ele>641</ele>
        <time>2009-04-14T13:32:36.000Z</time>
      </trkpt>
      <trkpt lat="44.40287" lon="5.11149">
        <ele>642</ele>
        <time>2009-04-14T13:32:46.000Z</time>
      </trkpt>
      <trkpt lat="44.40327" lon="5.11119">
        <ele>629</ele>
        <time>2009-04-14T13:33:38.000Z</time>
      </trkpt>
      <trkpt lat="44.40328" lon="5.11119">
        <ele>628</ele>
        <time>2009-04-14T13:33:39.000Z</time>
      </trkpt>
      <trkpt lat="44.40341" lon="5.11104">
        <ele>624</ele>
        <time>2009-04-14T13:33:58.000Z</time>
      </trkpt>
      <trkpt lat="44.40355" lon="5.11086">
        <ele>619</ele>
        <time>2009-04-14T13:34:20.000Z</time>
      </trkpt>
      <trkpt lat="44.40361" lon="5.11076">
        <ele>615</ele>
        <time>2009-04-14T13:34:32.000Z</time>
      </trkpt>
      <trkpt lat="44.40364" lon="5.1107">
        <ele>613</ele>
        <time>2009-04-14T13:34:39.000Z</time>
      </trkpt>
      <trkpt lat="44.40371" lon="5.1106">
        <ele>612</ele>
        <time>2009-04-14T13:34:51.000Z</time>
      </trkpt>
      <trkpt lat="44.40375" lon="5.11053">
        <ele>610</ele>
        <time>2009-04-14T13:34:59.000Z</time>
      </trkpt>
      <trkpt lat="44.40379" lon="5.11047">
        <ele>608</ele>
        <time>2009-04-14T13:35:06.000Z</time>
      </trkpt>
      <trkpt lat="44.40387" lon="5.11033">
        <ele>604</ele>
        <time>2009-04-14T13:35:21.000Z</time>
      </trkpt>
      <trkpt lat="44.4039" lon="5.11026">
        <ele>600</ele>
        <time>2009-04-14T13:35:30.000Z</time>
      </trkpt>
      <trkpt lat="44.404" lon="5.11006">
        <ele>597</ele>
        <time>2009-04-14T13:35:54.000Z</time>
      </trkpt>
      <trkpt lat="44.40414" lon="5.10978">
        <ele>595</ele>
        <time>2009-04-14T13:36:26.000Z</time>
      </trkpt>
      <trkpt lat="44.40419" lon="5.10968">
        <ele>593</ele>
        <time>2009-04-14T13:36:35.000Z</time>
      </trkpt>
      <trkpt lat="44.40438" lon="5.10923">
        <ele>579</ele>
        <time>2009-04-14T13:37:20.000Z</time>
      </trkpt>
      <trkpt lat="44.40446" lon="5.10907">
        <ele>578</ele>
        <time>2009-04-14T13:37:38.000Z</time>
      </trkpt>
      <trkpt lat="44.40454" lon="5.10895">
        <ele>579</ele>
        <time>2009-04-14T13:37:52.000Z</time>
      </trkpt>
      <trkpt lat="44.40459" lon="5.10889">
        <ele>576</ele>
        <time>2009-04-14T13:38:00.000Z</time>
      </trkpt>
      <trkpt lat="44.40467" lon="5.10878">
        <ele>572</ele>
        <time>2009-04-14T13:38:16.000Z</time>
      </trkpt>
      <trkpt lat="44.40473" lon="5.10869">
        <ele>572</ele>
        <time>2009-04-14T13:38:27.000Z</time>
      </trkpt>
      <trkpt lat="44.40477" lon="5.10863">
        <ele>570</ele>
        <time>2009-04-14T13:38:36.000Z</time>
      </trkpt>
      <trkpt lat="44.40486" lon="5.10851">
        <ele>567</ele>
        <time>2009-04-14T13:38:53.000Z</time>
      </trkpt>
      <trkpt lat="44.40511" lon="5.10818">
        <ele>559</ele>
        <time>2009-04-14T13:39:49.000Z</time>
      </trkpt>
      <trkpt lat="44.40518" lon="5.10807">
        <ele>556</ele>
        <time>2009-04-14T13:40:06.000Z</time>
      </trkpt>
      <trkpt lat="44.40524" lon="5.10798">
        <ele>555</ele>
        <time>2009-04-14T13:40:19.000Z</time>
      </trkpt>
      <trkpt lat="44.40529" lon="5.10789">
        <ele>553</ele>
        <time>2009-04-14T13:40:31.000Z</time>
      </trkpt>
      <trkpt lat="44.40535" lon="5.1078">
        <ele>549</ele>
        <time>2009-04-14T13:40:45.000Z</time>
      </trkpt>
      <trkpt lat="44.40542" lon="5.10764">
        <ele>547</ele>
        <time>2009-04-14T13:41:04.000Z</time>
      </trkpt>
      <trkpt lat="44.40547" lon="5.10754">
        <ele>545</ele>
        <time>2009-04-14T13:41:16.000Z</time>
      </trkpt>
      <trkpt lat="44.40559" lon="5.10727">
        <ele>539</ele>
        <time>2009-04-14T13:41:49.000Z</time>
      </trkpt>
      <trkpt lat="44.40568" lon="5.10711">
        <ele>536</ele>
        <time>2009-04-14T13:42:09.000Z</time>
      </trkpt>
      <trkpt lat="44.40571" lon="5.10704">
        <ele>534</ele>
        <time>2009-04-14T13:42:18.000Z</time>
      </trkpt>
      <trkpt lat="44.40574" lon="5.10696">
        <ele>532</ele>
        <time>2009-04-14T13:42:27.000Z</time>
      </trkpt>
      <trkpt lat="44.40579" lon="5.10687">
        <ele>528</ele>
        <time>2009-04-14T13:42:38.000Z</time>
      </trkpt>
      <trkpt lat="44.40585" lon="5.10678">
        <ele>527</ele>
        <time>2009-04-14T13:42:50.000Z</time>
      </trkpt>
      <trkpt lat="44.406" lon="5.10661">
        <ele>529</ele>
        <time>2009-04-14T13:43:13.000Z</time>
      </trkpt>
      <trkpt lat="44.40616" lon="5.10642">
        <ele>522</ele>
        <time>2009-04-14T13:43:40.000Z</time>
      </trkpt>
      <trkpt lat="44.4062" lon="5.10637">
        <ele>520</ele>
        <time>2009-04-14T13:43:48.000Z</time>
      </trkpt>
      <trkpt lat="44.40627" lon="5.10627">
        <ele>518</ele>
        <time>2009-04-14T13:44:00.000Z</time>
      </trkpt>
      <trkpt lat="44.40636" lon="5.10617">
        <ele>515</ele>
        <time>2009-04-14T13:44:16.000Z</time>
      </trkpt>
      <trkpt lat="44.40651" lon="5.10595">
        <ele>514</ele>
        <time>2009-04-14T13:44:44.000Z</time>
      </trkpt>
      <trkpt lat="44.40656" lon="5.10591">
        <ele>512</ele>
        <time>2009-04-14T13:44:52.000Z</time>
      </trkpt>
      <trkpt lat="44.4067" lon="5.10584">
        <ele>507</ele>
        <time>2009-04-14T13:45:11.000Z</time>
      </trkpt>
      <trkpt lat="44.4068" lon="5.10572">
        <ele>509</ele>
        <time>2009-04-14T13:45:27.000Z</time>
      </trkpt>
      <trkpt lat="44.40686" lon="5.10563">
        <ele>506</ele>
        <time>2009-04-14T13:45:40.000Z</time>
      </trkpt>
      <trkpt lat="44.40691" lon="5.10559">
        <ele>505</ele>
        <time>2009-04-14T13:45:49.000Z</time>
      </trkpt>
      <trkpt lat="44.40697" lon="5.10558">
        <ele>499</ele>
        <time>2009-04-14T13:46:00.000Z</time>
      </trkpt>
      <trkpt lat="44.40712" lon="5.10555">
        <ele>489</ele>
        <time>2009-04-14T13:46:18.000Z</time>
      </trkpt>
      <trkpt lat="44.40718" lon="5.10551">
        <ele>488</ele>
        <time>2009-04-14T13:46:26.000Z</time>
      </trkpt>
      <trkpt lat="44.40725" lon="5.10543">
        <ele>493</ele>
        <time>2009-04-14T13:46:36.000Z</time>
      </trkpt>
      <trkpt lat="44.40744" lon="5.10525">
        <ele>479</ele>
        <time>2009-04-14T13:47:13.000Z</time>
      </trkpt>
      <trkpt lat="44.40748" lon="5.10519">
        <ele>477</ele>
        <time>2009-04-14T13:47:22.000Z</time>
      </trkpt>
      <trkpt lat="44.40749" lon="5.10511">
        <ele>482</ele>
        <time>2009-04-14T13:47:41.000Z</time>
      </trkpt>
      <trkpt lat="44.40751" lon="5.10505">
        <ele>480</ele>
        <time>2009-04-14T13:47:49.000Z</time>
      </trkpt>
      <trkpt lat="44.40751" lon="5.10497">
        <ele>476</ele>
        <time>2009-04-14T13:47:57.000Z</time>
      </trkpt>
      <trkpt lat="44.4075" lon="5.10485">
        <ele>473</ele>
        <time>2009-04-14T13:48:46.000Z</time>
      </trkpt>
      <trkpt lat="44.4074" lon="5.10453">
        <ele>469</ele>
        <time>2009-04-14T13:49:13.000Z</time>
      </trkpt>
      <trkpt lat="44.40735" lon="5.10433">
        <ele>474</ele>
        <time>2009-04-14T13:49:28.000Z</time>
      </trkpt>
      <trkpt lat="44.40732" lon="5.10426">
        <ele>476</ele>
        <time>2009-04-14T13:49:36.000Z</time>
      </trkpt>
      <trkpt lat="44.40721" lon="5.10407">
        <ele>467</ele>
        <time>2009-04-14T13:49:59.000Z</time>
      </trkpt>
      <trkpt lat="44.40716" lon="5.10397">
        <ele>467</ele>
        <time>2009-04-14T13:50:07.000Z</time>
      </trkpt>
      <trkpt lat="44.40708" lon="5.10387">
        <ele>466</ele>
        <time>2009-04-14T13:50:17.000Z</time>
      </trkpt>
      <trkpt lat="44.40704" lon="5.10379">
        <ele>468</ele>
        <time>2009-04-14T13:50:28.000Z</time>
      </trkpt>
      <trkpt lat="44.40696" lon="5.10364">
        <ele>474</ele>
        <time>2009-04-14T13:50:40.000Z</time>
      </trkpt>
      <trkpt lat="44.40694" lon="5.10343">
        <ele>478</ele>
        <time>2009-04-14T13:50:55.000Z</time>
      </trkpt>
      <trkpt lat="44.40694" lon="5.1033">
        <ele>480</ele>
        <time>2009-04-14T13:51:04.000Z</time>
      </trkpt>
      <trkpt lat="44.4069" lon="5.10323">
        <ele>481</ele>
        <time>2009-04-14T13:51:11.000Z</time>
      </trkpt>
      <trkpt lat="44.40691" lon="5.10315">
        <ele>477</ele>
        <time>2009-04-14T13:51:24.000Z</time>
      </trkpt>
      <trkpt lat="44.40693" lon="5.10307">
        <ele>471</ele>
        <time>2009-04-14T13:51:29.000Z</time>
      </trkpt>
      <trkpt lat="44.40689" lon="5.10301">
        <ele>467</ele>
        <time>2009-04-14T13:51:35.000Z</time>
      </trkpt>
      <trkpt lat="44.40685" lon="5.10284">
        <ele>467</ele>
        <time>2009-04-14T13:51:47.000Z</time>
      </trkpt>
      <trkpt lat="44.40686" lon="5.10271">
        <ele>471</ele>
        <time>2009-04-14T13:51:56.000Z</time>
      </trkpt>
      <trkpt lat="44.40688" lon="5.10263">
        <ele>474</ele>
        <time>2009-04-14T13:52:01.000Z</time>
      </trkpt>
      <trkpt lat="44.40692" lon="5.10246">
        <ele>475</ele>
        <time>2009-04-14T13:52:11.000Z</time>
      </trkpt>
      <trkpt lat="44.40699" lon="5.10231">
        <ele>472</ele>
        <time>2009-04-14T13:52:23.000Z</time>
      </trkpt>
      <trkpt lat="44.40699" lon="5.10218">
        <ele>469</ele>
        <time>2009-04-14T13:52:32.000Z</time>
      </trkpt>
      <trkpt lat="44.40694" lon="5.10203">
        <ele>466</ele>
        <time>2009-04-14T13:52:44.000Z</time>
      </trkpt>
      <trkpt lat="44.40686" lon="5.10187">
        <ele>462</ele>
        <time>2009-04-14T13:52:59.000Z</time>
      </trkpt>
      <trkpt lat="44.40682" lon="5.10176">
        <ele>458</ele>
        <time>2009-04-14T13:53:08.000Z</time>
      </trkpt>
      <trkpt lat="44.40677" lon="5.10172">
        <ele>458</ele>
        <time>2009-04-14T13:53:14.000Z</time>
      </trkpt>
      <trkpt lat="44.40673" lon="5.10167">
        <ele>458</ele>
        <time>2009-04-14T13:53:21.000Z</time>
      </trkpt>
      <trkpt lat="44.40669" lon="5.10152">
        <ele>459</ele>
        <time>2009-04-14T13:53:39.000Z</time>
      </trkpt>
      <trkpt lat="44.4067" lon="5.10144">
        <ele>462</ele>
        <time>2009-04-14T13:54:02.000Z</time>
      </trkpt>
      <trkpt lat="44.40667" lon="5.10141">
        <ele>471</ele>
        <time>2009-04-14T13:54:53.000Z</time>
      </trkpt>
      <trkpt lat="44.40659" lon="5.10137">
        <ele>465</ele>
        <time>2009-04-14T13:55:04.000Z</time>
      </trkpt>
      <trkpt lat="44.40654" lon="5.10127">
        <ele>463</ele>
        <time>2009-04-14T13:55:16.000Z</time>
      </trkpt>
      <trkpt lat="44.40652" lon="5.10118">
        <ele>464</ele>
        <time>2009-04-14T13:55:24.000Z</time>
      </trkpt>
      <trkpt lat="44.40652" lon="5.10109">
        <ele>463</ele>
        <time>2009-04-14T13:55:36.000Z</time>
      </trkpt>
      <trkpt lat="44.4065" lon="5.10102">
        <ele>463</ele>
        <time>2009-04-14T13:55:44.000Z</time>
      </trkpt>
      <trkpt lat="44.40646" lon="5.10091">
        <ele>461</ele>
        <time>2009-04-14T13:55:59.000Z</time>
      </trkpt>
      <trkpt lat="44.40645" lon="5.10082">
        <ele>461</ele>
        <time>2009-04-14T13:56:07.000Z</time>
      </trkpt>
      <trkpt lat="44.40648" lon="5.10076">
        <ele>459</ele>
        <time>2009-04-14T13:56:14.000Z</time>
      </trkpt>
      <trkpt lat="44.40651" lon="5.10063">
        <ele>456</ele>
        <time>2009-04-14T13:56:28.000Z</time>
      </trkpt>
      <trkpt lat="44.40654" lon="5.10051">
        <ele>454</ele>
        <time>2009-04-14T13:56:43.000Z</time>
      </trkpt>
      <trkpt lat="44.40655" lon="5.10042">
        <ele>454</ele>
        <time>2009-04-14T13:56:49.000Z</time>
      </trkpt>
      <trkpt lat="44.40657" lon="5.10024">
        <ele>458</ele>
        <time>2009-04-14T13:57:01.000Z</time>
      </trkpt>
      <trkpt lat="44.40657" lon="5.10006">
        <ele>460</ele>
        <time>2009-04-14T13:57:13.000Z</time>
      </trkpt>
      <trkpt lat="44.40655" lon="5.09997">
        <ele>463</ele>
        <time>2009-04-14T13:57:19.000Z</time>
      </trkpt>
      <trkpt lat="44.4065" lon="5.09982">
        <ele>461</ele>
        <time>2009-04-14T13:57:52.000Z</time>
      </trkpt>
      <trkpt lat="44.40638" lon="5.09963">
        <ele>456</ele>
        <time>2009-04-14T13:58:12.000Z</time>
      </trkpt>
      <trkpt lat="44.40631" lon="5.09954">
        <ele>455</ele>
        <time>2009-04-14T13:58:21.000Z</time>
      </trkpt>
      <trkpt lat="44.40617" lon="5.09928">
        <ele>465</ele>
        <time>2009-04-14T13:58:41.000Z</time>
      </trkpt>
      <trkpt lat="44.40603" lon="5.09912">
        <ele>468</ele>
        <time>2009-04-14T13:58:58.000Z</time>
      </trkpt>
      <trkpt lat="44.4059" lon="5.09898">
        <ele>462</ele>
        <time>2009-04-14T13:59:12.000Z</time>
      </trkpt>
      <trkpt lat="44.4058" lon="5.09894">
        <ele>458</ele>
        <time>2009-04-14T13:59:22.000Z</time>
      </trkpt>
      <trkpt lat="44.40574" lon="5.09892">
        <ele>459</ele>
        <time>2009-04-14T13:59:30.000Z</time>
      </trkpt>
      <trkpt lat="44.40565" lon="5.09884">
        <ele>458</ele>
        <time>2009-04-14T13:59:51.000Z</time>
      </trkpt>
      <trkpt lat="44.40566" lon="5.09869">
        <ele>460</ele>
        <time>2009-04-14T14:00:12.000Z</time>
      </trkpt>
      <trkpt lat="44.40563" lon="5.09859">
        <ele>460</ele>
        <time>2009-04-14T14:00:24.000Z</time>
      </trkpt>
      <trkpt lat="44.40554" lon="5.09847">
        <ele>458</ele>
        <time>2009-04-14T14:00:36.000Z</time>
      </trkpt>
      <trkpt lat="44.40553" lon="5.09839">
        <ele>457</ele>
        <time>2009-04-14T14:00:43.000Z</time>
      </trkpt>
      <trkpt lat="44.40552" lon="5.09831">
        <ele>456</ele>
        <time>2009-04-14T14:00:50.000Z</time>
      </trkpt>
      <trkpt lat="44.4055" lon="5.09822">
        <ele>457</ele>
        <time>2009-04-14T14:00:59.000Z</time>
      </trkpt>
      <trkpt lat="44.4055" lon="5.09814">
        <ele>454</ele>
        <time>2009-04-14T14:01:08.000Z</time>
      </trkpt>
      <trkpt lat="44.40549" lon="5.09806">
        <ele>452</ele>
        <time>2009-04-14T14:01:16.000Z</time>
      </trkpt>
      <trkpt lat="44.40545" lon="5.09798">
        <ele>452</ele>
        <time>2009-04-14T14:01:24.000Z</time>
      </trkpt>
      <trkpt lat="44.40541" lon="5.09792">
        <ele>452</ele>
        <time>2009-04-14T14:01:32.000Z</time>
      </trkpt>
      <trkpt lat="44.40539" lon="5.09781">
        <ele>448</ele>
        <time>2009-04-14T14:01:43.000Z</time>
      </trkpt>
      <trkpt lat="44.40532" lon="5.09771">
        <ele>448</ele>
        <time>2009-04-14T14:01:52.000Z</time>
      </trkpt>
      <trkpt lat="44.40522" lon="5.0974">
        <ele>452</ele>
        <time>2009-04-14T14:02:16.000Z</time>
      </trkpt>
      <trkpt lat="44.40521" lon="5.09731">
        <ele>451</ele>
        <time>2009-04-14T14:02:22.000Z</time>
      </trkpt>
      <trkpt lat="44.40514" lon="5.09722">
        <ele>448</ele>
        <time>2009-04-14T14:02:32.000Z</time>
      </trkpt>
      <trkpt lat="44.40508" lon="5.09713">
        <ele>445</ele>
        <time>2009-04-14T14:02:41.000Z</time>
      </trkpt>
      <trkpt lat="44.40503" lon="5.09703">
        <ele>441</ele>
        <time>2009-04-14T14:02:49.000Z</time>
      </trkpt>
      <trkpt lat="44.40498" lon="5.09698">
        <ele>441</ele>
        <time>2009-04-14T14:02:55.000Z</time>
      </trkpt>
      <trkpt lat="44.40493" lon="5.09692">
        <ele>443</ele>
        <time>2009-04-14T14:03:01.000Z</time>
      </trkpt>
      <trkpt lat="44.40487" lon="5.09683">
        <ele>445</ele>
        <time>2009-04-14T14:03:08.000Z</time>
      </trkpt>
      <trkpt lat="44.40484" lon="5.09676">
        <ele>447</ele>
        <time>2009-04-14T14:03:12.000Z</time>
      </trkpt>
      <trkpt lat="44.40475" lon="5.09663">
        <ele>448</ele>
        <time>2009-04-14T14:03:23.000Z</time>
      </trkpt>
      <trkpt lat="44.40469" lon="5.09658">
        <ele>446</ele>
        <time>2009-04-14T14:03:31.000Z</time>
      </trkpt>
      <trkpt lat="44.40464" lon="5.09652">
        <ele>447</ele>
        <time>2009-04-14T14:03:37.000Z</time>
      </trkpt>
      <trkpt lat="44.40453" lon="5.09644">
        <ele>450</ele>
        <time>2009-04-14T14:03:48.000Z</time>
      </trkpt>
      <trkpt lat="44.40443" lon="5.09632">
        <ele>450</ele>
        <time>2009-04-14T14:03:59.000Z</time>
      </trkpt>
      <trkpt lat="44.40438" lon="5.09621">
        <ele>448</ele>
        <time>2009-04-14T14:04:08.000Z</time>
      </trkpt>
      <trkpt lat="44.40428" lon="5.0961">
        <ele>449</ele>
        <time>2009-04-14T14:04:20.000Z</time>
      </trkpt>
      <trkpt lat="44.40424" lon="5.09605">
        <ele>447</ele>
        <time>2009-04-14T14:04:27.000Z</time>
      </trkpt>
      <trkpt lat="44.40421" lon="5.09597">
        <ele>444</ele>
        <time>2009-04-14T14:04:35.000Z</time>
      </trkpt>
      <trkpt lat="44.40406" lon="5.09566">
        <ele>443</ele>
        <time>2009-04-14T14:05:02.000Z</time>
      </trkpt>
      <trkpt lat="44.40398" lon="5.0955">
        <ele>445</ele>
        <time>2009-04-14T14:05:14.000Z</time>
      </trkpt>
      <trkpt lat="44.40395" lon="5.09541">
        <ele>446</ele>
        <time>2009-04-14T14:05:20.000Z</time>
      </trkpt>
      <trkpt lat="44.40395" lon="5.09528">
        <ele>446</ele>
        <time>2009-04-14T14:05:29.000Z</time>
      </trkpt>
      <trkpt lat="44.40393" lon="5.09521">
        <ele>445</ele>
        <time>2009-04-14T14:05:34.000Z</time>
      </trkpt>
      <trkpt lat="44.40389" lon="5.09515">
        <ele>444</ele>
        <time>2009-04-14T14:05:40.000Z</time>
      </trkpt>
      <trkpt lat="44.40385" lon="5.09506">
        <ele>450</ele>
        <time>2009-04-14T14:06:15.000Z</time>
      </trkpt>
      <trkpt lat="44.40377" lon="5.09495">
        <ele>449</ele>
        <time>2009-04-14T14:06:31.000Z</time>
      </trkpt>
      <trkpt lat="44.40374" lon="5.09488">
        <ele>445</ele>
        <time>2009-04-14T14:06:38.000Z</time>
      </trkpt>
      <trkpt lat="44.40369" lon="5.09478">
        <ele>443</ele>
        <time>2009-04-14T14:06:50.000Z</time>
      </trkpt>
      <trkpt lat="44.40369" lon="5.09471">
        <ele>444</ele>
        <time>2009-04-14T14:07:02.000Z</time>
      </trkpt>
      <trkpt lat="44.40374" lon="5.09467">
        <ele>448</ele>
        <time>2009-04-14T14:07:14.000Z</time>
      </trkpt>
      <trkpt lat="44.40378" lon="5.0946">
        <ele>448</ele>
        <time>2009-04-14T14:07:21.000Z</time>
      </trkpt>
      <trkpt lat="44.40385" lon="5.09446">
        <ele>439</ele>
        <time>2009-04-14T14:07:43.000Z</time>
      </trkpt>
      <trkpt lat="44.40384" lon="5.09437">
        <ele>440</ele>
        <time>2009-04-14T14:07:49.000Z</time>
      </trkpt>
      <trkpt lat="44.40377" lon="5.09419">
        <ele>442</ele>
        <time>2009-04-14T14:08:02.000Z</time>
      </trkpt>
      <trkpt lat="44.40359" lon="5.09403">
        <ele>444</ele>
        <time>2009-04-14T14:08:19.000Z</time>
      </trkpt>
      <trkpt lat="44.40343" lon="5.09388">
        <ele>442</ele>
        <time>2009-04-14T14:08:35.000Z</time>
      </trkpt>
      <trkpt lat="44.40339" lon="5.09384">
        <ele>440</ele>
        <time>2009-04-14T14:08:40.000Z</time>
      </trkpt>
      <trkpt lat="44.40329" lon="5.09384">
        <ele>438</ele>
        <time>2009-04-14T14:08:52.000Z</time>
      </trkpt>
      <trkpt lat="44.40318" lon="5.09394">
        <ele>433</ele>
        <time>2009-04-14T14:09:08.000Z</time>
      </trkpt>
      <trkpt lat="44.40315" lon="5.094">
        <ele>433</ele>
        <time>2009-04-14T14:09:21.000Z</time>
      </trkpt>
      <trkpt lat="44.40309" lon="5.0941">
        <ele>447</ele>
        <time>2009-04-14T14:09:42.000Z</time>
      </trkpt>
      <trkpt lat="44.40312" lon="5.09403">
        <ele>450</ele>
        <time>2009-04-14T14:09:59.000Z</time>
      </trkpt>
      <trkpt lat="44.40321" lon="5.09398">
        <ele>451</ele>
        <time>2009-04-14T14:10:35.000Z</time>
      </trkpt>
      <trkpt lat="44.40316" lon="5.09403">
        <ele>431</ele>
        <time>2009-04-14T14:11:18.000Z</time>
      </trkpt>
      <trkpt lat="44.40324" lon="5.09392">
        <ele>429</ele>
        <time>2009-04-14T14:11:27.000Z</time>
      </trkpt>
      <trkpt lat="44.40315" lon="5.09384">
        <ele>429</ele>
        <time>2009-04-14T14:11:36.000Z</time>
      </trkpt>
      <trkpt lat="44.40308" lon="5.09376">
        <ele>430</ele>
        <time>2009-04-14T14:11:43.000Z</time>
      </trkpt>
      <trkpt lat="44.40272" lon="5.09338">
        <ele>431</ele>
        <time>2009-04-14T14:12:18.000Z</time>
      </trkpt>
      <trkpt lat="44.40271" lon="5.09336">
        <ele>431</ele>
        <time>2009-04-14T14:12:19.000Z</time>
      </trkpt>
      <trkpt lat="44.40261" lon="5.09322">
        <ele>431</ele>
        <time>2009-04-14T14:12:30.000Z</time>
      </trkpt>
      <trkpt lat="44.40232" lon="5.09272">
        <ele>429</ele>
        <time>2009-04-14T14:13:02.000Z</time>
      </trkpt>
      <trkpt lat="44.40231" lon="5.09271">
        <ele>429</ele>
        <time>2009-04-14T14:13:03.000Z</time>
      </trkpt>
      <trkpt lat="44.40224" lon="5.09262">
        <ele>429</ele>
        <time>2009-04-14T14:13:10.000Z</time>
      </trkpt>
      <trkpt lat="44.40219" lon="5.09257">
        <ele>429</ele>
        <time>2009-04-14T14:13:14.000Z</time>
      </trkpt>
      <trkpt lat="44.40184" lon="5.09224">
        <ele>429</ele>
        <time>2009-04-14T14:13:44.000Z</time>
      </trkpt>
      <trkpt lat="44.40167" lon="5.09206">
        <ele>429</ele>
        <time>2009-04-14T14:13:59.000Z</time>
      </trkpt>
      <trkpt lat="44.40133" lon="5.09182">
        <ele>429</ele>
        <time>2009-04-14T14:14:25.000Z</time>
      </trkpt>
      <trkpt lat="44.40091" lon="5.09156">
        <ele>426</ele>
        <time>2009-04-14T14:14:57.000Z</time>
      </trkpt>
      <trkpt lat="44.40089" lon="5.09156">
        <ele>426</ele>
        <time>2009-04-14T14:14:58.000Z</time>
      </trkpt>
      <trkpt lat="44.40075" lon="5.09149">
        <ele>426</ele>
        <time>2009-04-14T14:15:08.000Z</time>
      </trkpt>
      <trkpt lat="44.40069" lon="5.09149">
        <ele>426</ele>
        <time>2009-04-14T14:15:12.000Z</time>
      </trkpt>
      <trkpt lat="44.40046" lon="5.09146">
        <ele>425</ele>
        <time>2009-04-14T14:15:28.000Z</time>
      </trkpt>
      <trkpt lat="44.40015" lon="5.09129">
        <ele>423</ele>
        <time>2009-04-14T14:15:54.000Z</time>
      </trkpt>
      <trkpt lat="44.4001" lon="5.09126">
        <ele>422</ele>
        <time>2009-04-14T14:15:58.000Z</time>
      </trkpt>
      <trkpt lat="44.39967" lon="5.09105">
        <ele>421</ele>
        <time>2009-04-14T14:16:30.000Z</time>
      </trkpt>
      <trkpt lat="44.39966" lon="5.09104">
        <ele>421</ele>
        <time>2009-04-14T14:16:31.000Z</time>
      </trkpt>
      <trkpt lat="44.39923" lon="5.09081">
        <ele>419</ele>
        <time>2009-04-14T14:17:05.000Z</time>
      </trkpt>
      <trkpt lat="44.39922" lon="5.09081">
        <ele>419</ele>
        <time>2009-04-14T14:17:06.000Z</time>
      </trkpt>
      <trkpt lat="44.39906" lon="5.09073">
        <ele>419</ele>
        <time>2009-04-14T14:17:18.000Z</time>
      </trkpt>
      <trkpt lat="44.39875" lon="5.09061">
        <ele>415</ele>
        <time>2009-04-14T14:17:43.000Z</time>
      </trkpt>
      <trkpt lat="44.39835" lon="5.09048">
        <ele>418</ele>
        <time>2009-04-14T14:18:10.000Z</time>
      </trkpt>
      <trkpt lat="44.39819" lon="5.09046">
        <ele>418</ele>
        <time>2009-04-14T14:18:20.000Z</time>
      </trkpt>
      <trkpt lat="44.39807" lon="5.09042">
        <ele>419</ele>
        <time>2009-04-14T14:18:29.000Z</time>
      </trkpt>
      <trkpt lat="44.39761" lon="5.09036">
        <ele>422</ele>
        <time>2009-04-14T14:19:02.000Z</time>
      </trkpt>
      <trkpt lat="44.3976" lon="5.09036">
        <ele>422</ele>
        <time>2009-04-14T14:19:03.000Z</time>
      </trkpt>
      <trkpt lat="44.39746" lon="5.09036">
        <ele>424</ele>
        <time>2009-04-14T14:19:14.000Z</time>
      </trkpt>
      <trkpt lat="44.3974" lon="5.0904">
        <ele>424</ele>
        <time>2009-04-14T14:19:17.000Z</time>
      </trkpt>
      <trkpt lat="44.39721" lon="5.09054">
        <ele>423</ele>
        <time>2009-04-14T14:19:28.000Z</time>
      </trkpt>
      <trkpt lat="44.39703" lon="5.09063">
        <ele>418</ele>
        <time>2009-04-14T14:19:41.000Z</time>
      </trkpt>
      <trkpt lat="44.39679" lon="5.09074">
        <ele>415</ele>
        <time>2009-04-14T14:20:00.000Z</time>
      </trkpt>
      <trkpt lat="44.39648" lon="5.0908">
        <ele>413</ele>
        <time>2009-04-14T14:20:24.000Z</time>
      </trkpt>
      <trkpt lat="44.39632" lon="5.09076">
        <ele>414</ele>
        <time>2009-04-14T14:20:35.000Z</time>
      </trkpt>
      <trkpt lat="44.3962" lon="5.09073">
        <ele>415</ele>
        <time>2009-04-14T14:21:06.000Z</time>
      </trkpt>
      <trkpt lat="44.39624" lon="5.09078">
        <ele>415</ele>
        <time>2009-04-14T14:21:31.000Z</time>
      </trkpt>
      <trkpt lat="44.39625" lon="5.09082">
        <ele>414</ele>
        <time>2009-04-14T14:21:42.000Z</time>
      </trkpt>
      <trkpt lat="44.39623" lon="5.09086">
        <ele>417</ele>
        <time>2009-04-14T14:21:49.000Z</time>
      </trkpt>
      <trkpt lat="44.39628" lon="5.0909">
        <ele>419</ele>
        <time>2009-04-14T14:21:54.000Z</time>
      </trkpt>
      <trkpt lat="44.39631" lon="5.09096">
        <ele>420</ele>
        <time>2009-04-14T14:22:00.000Z</time>
      </trkpt>
      <trkpt lat="44.39628" lon="5.09107">
        <ele>419</ele>
        <time>2009-04-14T14:22:15.000Z</time>
      </trkpt>
      <trkpt lat="44.3963" lon="5.09122">
        <ele>410</ele>
        <time>2009-04-14T14:22:44.000Z</time>
      </trkpt>
      <trkpt lat="44.39629" lon="5.09133">
        <ele>411</ele>
        <time>2009-04-14T14:22:59.000Z</time>
      </trkpt>
      <trkpt lat="44.39621" lon="5.09136">
        <ele>414</ele>
        <time>2009-04-14T14:23:10.000Z</time>
      </trkpt>
      <trkpt lat="44.39615" lon="5.09139">
        <ele>418</ele>
        <time>2009-04-14T14:23:16.000Z</time>
      </trkpt>
      <trkpt lat="44.39608" lon="5.0914">
        <ele>421</ele>
        <time>2009-04-14T14:23:23.000Z</time>
      </trkpt>
      <trkpt lat="44.39602" lon="5.09142">
        <ele>422</ele>
        <time>2009-04-14T14:23:29.000Z</time>
      </trkpt>
      <trkpt lat="44.39597" lon="5.09145">
        <ele>422</ele>
        <time>2009-04-14T14:23:35.000Z</time>
      </trkpt>
      <trkpt lat="44.3959" lon="5.0915">
        <ele>416</ele>
        <time>2009-04-14T14:23:51.000Z</time>
      </trkpt>
      <trkpt lat="44.39568" lon="5.09173">
        <ele>417</ele>
        <time>2009-04-14T14:24:18.000Z</time>
      </trkpt>
      <trkpt lat="44.39532" lon="5.09212">
        <ele>418</ele>
        <time>2009-04-14T14:24:51.000Z</time>
      </trkpt>
      <trkpt lat="44.39531" lon="5.09213">
        <ele>418</ele>
        <time>2009-04-14T14:24:52.000Z</time>
      </trkpt>
      <trkpt lat="44.39505" lon="5.09243">
        <ele>422</ele>
        <time>2009-04-14T14:25:18.000Z</time>
      </trkpt>
      <trkpt lat="44.39499" lon="5.09252">
        <ele>421</ele>
        <time>2009-04-14T14:25:25.000Z</time>
      </trkpt>
      <trkpt lat="44.39494" lon="5.09258">
        <ele>419</ele>
        <time>2009-04-14T14:25:31.000Z</time>
      </trkpt>
      <trkpt lat="44.39481" lon="5.09275">
        <ele>418</ele>
        <time>2009-04-14T14:25:45.000Z</time>
      </trkpt>
      <trkpt lat="44.39476" lon="5.0928">
        <ele>419</ele>
        <time>2009-04-14T14:25:50.000Z</time>
      </trkpt>
      <trkpt lat="44.39463" lon="5.09294">
        <ele>422</ele>
        <time>2009-04-14T14:26:03.000Z</time>
      </trkpt>
      <trkpt lat="44.39459" lon="5.093">
        <ele>420</ele>
        <time>2009-04-14T14:26:08.000Z</time>
      </trkpt>
      <trkpt lat="44.39449" lon="5.09308">
        <ele>419</ele>
        <time>2009-04-14T14:26:19.000Z</time>
      </trkpt>
      <trkpt lat="44.39442" lon="5.09316">
        <ele>421</ele>
        <time>2009-04-14T14:26:27.000Z</time>
      </trkpt>
      <trkpt lat="44.39438" lon="5.09321">
        <ele>419</ele>
        <time>2009-04-14T14:26:40.000Z</time>
      </trkpt>
      <trkpt lat="44.39434" lon="5.09328">
        <ele>415</ele>
        <time>2009-04-14T14:26:45.000Z</time>
      </trkpt>
      <trkpt lat="44.39426" lon="5.09338">
        <ele>414</ele>
        <time>2009-04-14T14:26:53.000Z</time>
      </trkpt>
      <trkpt lat="44.39419" lon="5.09347">
        <ele>414</ele>
        <time>2009-04-14T14:27:01.000Z</time>
      </trkpt>
      <trkpt lat="44.39411" lon="5.09354">
        <ele>414</ele>
        <time>2009-04-14T14:27:09.000Z</time>
      </trkpt>
      <trkpt lat="44.39402" lon="5.09359">
        <ele>416</ele>
        <time>2009-04-14T14:27:17.000Z</time>
      </trkpt>
      <trkpt lat="44.39396" lon="5.09363">
        <ele>417</ele>
        <time>2009-04-14T14:27:22.000Z</time>
      </trkpt>
      <trkpt lat="44.39386" lon="5.09366">
        <ele>414</ele>
        <time>2009-04-14T14:27:29.000Z</time>
      </trkpt>
      <trkpt lat="44.3938" lon="5.09367">
        <ele>412</ele>
        <time>2009-04-14T14:27:35.000Z</time>
      </trkpt>
      <trkpt lat="44.39365" lon="5.09372">
        <ele>410</ele>
        <time>2009-04-14T14:27:46.000Z</time>
      </trkpt>
      <trkpt lat="44.39355" lon="5.09373">
        <ele>411</ele>
        <time>2009-04-14T14:27:54.000Z</time>
      </trkpt>
      <trkpt lat="44.39342" lon="5.09375">
        <ele>412</ele>
        <time>2009-04-14T14:28:03.000Z</time>
      </trkpt>
      <trkpt lat="44.39336" lon="5.09378">
        <ele>412</ele>
        <time>2009-04-14T14:28:07.000Z</time>
      </trkpt>
      <trkpt lat="44.393" lon="5.09393">
        <ele>412</ele>
        <time>2009-04-14T14:28:35.000Z</time>
      </trkpt>
      <trkpt lat="44.39289" lon="5.09405">
        <ele>415</ele>
        <time>2009-04-14T14:28:46.000Z</time>
      </trkpt>
      <trkpt lat="44.39275" lon="5.09424">
        <ele>416</ele>
        <time>2009-04-14T14:29:00.000Z</time>
      </trkpt>
      <trkpt lat="44.39257" lon="5.09458">
        <ele>415</ele>
        <time>2009-04-14T14:29:24.000Z</time>
      </trkpt>
      <trkpt lat="44.39253" lon="5.09451">
        <ele>430</ele>
        <time>2009-04-14T14:30:46.000Z</time>
      </trkpt>
      <trkpt lat="44.39247" lon="5.09467">
        <ele>429</ele>
        <time>2009-04-14T14:30:54.000Z</time>
      </trkpt>
      <trkpt lat="44.39241" lon="5.09485">
        <ele>426</ele>
        <time>2009-04-14T14:31:02.000Z</time>
      </trkpt>
      <trkpt lat="44.39238" lon="5.09493">
        <ele>425</ele>
        <time>2009-04-14T14:31:06.000Z</time>
      </trkpt>
      <trkpt lat="44.39215" lon="5.09549">
        <ele>423</ele>
        <time>2009-04-14T14:31:35.000Z</time>
      </trkpt>
      <trkpt lat="44.39214" lon="5.09551">
        <ele>423</ele>
        <time>2009-04-14T14:31:36.000Z</time>
      </trkpt>
      <trkpt lat="44.3919" lon="5.09605">
        <ele>420</ele>
        <time>2009-04-14T14:32:05.000Z</time>
      </trkpt>
      <trkpt lat="44.3919" lon="5.09607">
        <ele>420</ele>
        <time>2009-04-14T14:32:06.000Z</time>
      </trkpt>
      <trkpt lat="44.39165" lon="5.0966">
        <ele>424</ele>
        <time>2009-04-14T14:32:36.000Z</time>
      </trkpt>
      <trkpt lat="44.39164" lon="5.09661">
        <ele>424</ele>
        <time>2009-04-14T14:32:37.000Z</time>
      </trkpt>
      <trkpt lat="44.3914" lon="5.09714">
        <ele>429</ele>
        <time>2009-04-14T14:33:07.000Z</time>
      </trkpt>
      <trkpt lat="44.39139" lon="5.09716">
        <ele>429</ele>
        <time>2009-04-14T14:33:08.000Z</time>
      </trkpt>
      <trkpt lat="44.39125" lon="5.09747">
        <ele>428</ele>
        <time>2009-04-14T14:33:25.000Z</time>
      </trkpt>
      <trkpt lat="44.39101" lon="5.09795">
        <ele>431</ele>
        <time>2009-04-14T14:34:19.000Z</time>
      </trkpt>
      <trkpt lat="44.39098" lon="5.09796">
        <ele>424</ele>
        <time>2009-04-14T14:35:31.000Z</time>
      </trkpt>
      <trkpt lat="44.391" lon="5.098">
        <ele>415</ele>
        <time>2009-04-14T14:36:23.000Z</time>
      </trkpt>
    </trkseg>
  </trk>
</gpx>